createdAt,value
2022-09-23T00:00:48.367Z,11.21
2022-09-23T00:03:16.099Z,11.21
2022-09-23T00:05:43.156Z,11.21
2022-09-23T00:08:11.678Z,11.20
2022-09-23T00:10:39.853Z,11.15
2022-09-23T00:13:06.496Z,11.14
2022-09-23T00:15:38.769Z,11.08
2022-09-23T00:18:05.403Z,11.04
2022-09-23T00:20:33.712Z,11.02
2022-09-23T00:23:00.510Z,11.02
2022-09-23T00:25:29.696Z,10.98
2022-09-23T00:27:56.734Z,10.96
2022-09-23T00:30:23.635Z,10.93
2022-09-23T00:32:50.084Z,10.88
2022-09-23T00:35:16.640Z,10.85
2022-09-23T00:37:42.999Z,10.80
2022-09-23T00:40:10.648Z,10.77
2022-09-23T00:42:37.056Z,10.71
2022-09-23T00:45:04.292Z,10.68
2022-09-23T00:47:50.386Z,10.67
2022-09-23T00:50:35.132Z,10.61
2022-09-23T00:53:05.503Z,10.57
2022-09-23T00:55:42.069Z,10.50
2022-09-23T00:58:12.499Z,10.47
2022-09-23T01:00:39.074Z,10.42
2022-09-23T01:03:06.878Z,10.42
2022-09-23T01:05:34.071Z,10.39
2022-09-23T01:08:02.553Z,10.36
2022-09-23T01:10:42.997Z,10.34
2022-09-23T01:13:46.915Z,10.35
2022-09-23T01:16:21.481Z,10.36
2022-09-23T01:19:05.300Z,10.35
2022-09-23T01:22:14.371Z,10.34
2022-09-23T01:24:55.182Z,10.30
2022-09-23T01:27:30.744Z,10.29
2022-09-23T01:30:09.700Z,10.26
2022-09-23T01:32:58.290Z,10.20
2022-09-23T01:35:47.967Z,10.17
2022-09-23T01:38:34.657Z,10.17
2022-09-23T01:41:04.525Z,10.11
2022-09-23T01:43:43.703Z,10.07
2022-09-23T01:46:17.707Z,10.02
2022-09-23T01:48:54.080Z,9.98
2022-09-23T01:51:26.636Z,9.95
2022-09-23T01:54:18.181Z,9.88
2022-09-23T01:56:56.229Z,9.83
2022-09-23T01:59:40.679Z,9.77
2022-09-23T02:02:23.672Z,9.74
2022-09-23T02:05:06.852Z,9.68
2022-09-23T02:07:33.162Z,9.66
2022-09-23T02:10:07.309Z,9.66
2022-09-23T02:12:38.282Z,9.65
2022-09-23T02:15:10.071Z,9.63
2022-09-23T02:17:48.312Z,9.58
2022-09-23T02:20:20.973Z,9.61
2022-09-23T02:22:56.415Z,9.56
2022-09-23T02:25:35.184Z,9.57
2022-09-23T02:28:31.147Z,9.50
2022-09-23T02:31:13.023Z,9.50
2022-09-23T02:33:51.120Z,9.47
2022-09-23T02:36:29.965Z,9.47
2022-09-23T02:39:00.790Z,9.44
2022-09-23T02:41:39.251Z,9.41
2022-09-23T02:44:16.387Z,9.38
2022-09-23T02:46:43.667Z,9.33
2022-09-23T02:49:15.017Z,9.30
2022-09-23T02:51:41.746Z,9.29
2022-09-23T02:54:14.826Z,9.33
2022-09-23T02:56:41.724Z,9.31
2022-09-23T02:59:09.521Z,9.23
2022-09-23T03:02:13.672Z,9.21
2022-09-23T03:05:19.363Z,9.26
2022-09-23T03:07:52.957Z,9.27
2022-09-23T03:10:22.857Z,9.28
2022-09-23T03:12:58.193Z,9.34
2022-09-23T03:15:37.919Z,9.26
2022-09-23T03:18:14.438Z,9.23
2022-09-23T03:20:46.240Z,9.23
2022-09-23T03:23:15.192Z,9.23
2022-09-23T03:25:45.768Z,9.22
2022-09-23T03:28:14.696Z,9.22
2022-09-23T03:30:43.481Z,9.22
2022-09-23T03:33:12.666Z,9.24
2022-09-23T03:36:07.563Z,9.25
2022-09-23T03:38:37.903Z,9.23
2022-09-23T03:41:06.123Z,9.22
2022-09-23T03:43:37.999Z,9.25
2022-09-23T03:46:07.167Z,9.22
2022-09-23T03:48:33.792Z,9.24
2022-09-23T03:51:17.786Z,9.25
2022-09-23T03:53:44.146Z,9.27
2022-09-23T03:56:11.672Z,9.27
2022-09-23T03:58:38.247Z,9.25
2022-09-23T04:01:06.196Z,9.20
2022-09-23T04:03:32.750Z,9.17
2022-09-23T04:05:59.186Z,9.18
2022-09-23T04:08:25.521Z,9.17
2022-09-23T04:10:54.880Z,9.15
2022-09-23T04:13:21.426Z,9.13
2022-09-23T04:15:50.247Z,9.10
2022-09-23T04:18:16.584Z,9.03
2022-09-23T04:20:43.017Z,9.03
2022-09-23T04:23:09.407Z,8.99
2022-09-23T04:25:35.915Z,8.98
2022-09-23T04:28:02.694Z,8.98
2022-09-23T04:30:29.096Z,9.02
2022-09-23T04:32:55.521Z,9.03
2022-09-23T04:35:21.895Z,9.05
2022-09-23T04:37:48.756Z,9.06
2022-09-23T04:40:15.400Z,9.02
2022-09-23T04:42:41.888Z,9.00
2022-09-23T04:45:08.605Z,8.99
2022-09-23T04:47:35.035Z,8.93
2022-09-23T04:50:01.506Z,8.88
2022-09-23T04:52:29.900Z,8.84
2022-09-23T04:54:56.351Z,8.86
2022-09-23T04:57:24.601Z,8.79
2022-09-23T04:59:51.037Z,8.69
2022-09-23T05:02:17.418Z,8.63
2022-09-23T05:04:44.563Z,8.61
2022-09-23T05:07:12.098Z,8.63
2022-09-23T05:09:38.716Z,8.64
2022-09-23T05:12:05.446Z,8.64
2022-09-23T05:14:31.795Z,8.64
2022-09-23T05:16:58.188Z,8.65
2022-09-23T05:19:24.588Z,8.67
2022-09-23T05:21:50.956Z,8.68
2022-09-23T05:24:17.539Z,8.69
2022-09-23T05:26:43.874Z,8.72
2022-09-23T05:29:10.445Z,8.70
2022-09-23T05:31:36.951Z,8.80
2022-09-23T05:34:05.119Z,8.84
2022-09-23T05:36:37.954Z,8.78
2022-09-23T05:39:05.942Z,8.75
2022-09-23T05:41:33.883Z,8.78
2022-09-23T05:44:00.793Z,8.87
2022-09-23T05:46:29.379Z,8.99
2022-09-23T05:49:01.784Z,9.09
2022-09-23T05:51:31.194Z,9.04
2022-09-23T05:53:58.872Z,8.98
2022-09-23T05:56:27.864Z,8.98
2022-09-23T05:58:56.364Z,9.04
2022-09-23T06:01:25.846Z,8.89
2022-09-23T06:03:53.683Z,8.89
2022-09-23T06:06:24.183Z,8.87
2022-09-23T06:08:50.825Z,8.87
2022-09-23T06:11:17.395Z,8.79
2022-09-23T06:13:44.006Z,8.75
2022-09-23T06:16:12.872Z,8.77
2022-09-23T06:18:44.302Z,8.81
2022-09-23T06:21:16.544Z,8.92
2022-09-23T06:23:45.138Z,9.03
2022-09-23T06:26:14.752Z,9.13
2022-09-23T06:28:42.975Z,9.30
2022-09-23T06:31:17.214Z,9.43
2022-09-23T06:33:45.570Z,9.48
2022-09-23T06:36:20.782Z,9.56
2022-09-23T06:38:51.038Z,9.61
2022-09-23T06:41:20.675Z,9.68
2022-09-23T06:43:47.741Z,9.84
2022-09-23T06:46:16.126Z,9.85
2022-09-23T06:48:46.450Z,9.87
2022-09-23T06:51:22.900Z,9.94
2022-09-23T06:53:49.490Z,9.96
2022-09-23T06:56:19.947Z,10.06
2022-09-23T06:58:46.923Z,10.14
2022-09-23T07:01:16.203Z,10.13
2022-09-23T07:03:43.765Z,10.15
2022-09-23T07:06:10.555Z,10.24
2022-09-23T07:08:37.378Z,10.29
2022-09-23T07:11:06.311Z,10.38
2022-09-23T07:13:33.504Z,10.46
2022-09-23T07:16:01.971Z,10.50
2022-09-23T07:18:36.157Z,10.60
2022-09-23T07:21:15.253Z,10.65
2022-09-23T07:23:46.533Z,10.64
2022-09-23T07:26:14.402Z,10.73
2022-09-23T07:28:40.913Z,10.80
2022-09-23T07:31:13.375Z,10.84
2022-09-23T07:33:44.042Z,10.93
2022-09-23T07:36:13.572Z,11.01
2022-09-23T07:38:44.435Z,11.15
2022-09-23T07:41:15.111Z,11.18
2022-09-23T07:43:41.581Z,11.29
2022-09-23T07:46:11.580Z,11.43
2022-09-23T07:48:38.905Z,11.56
2022-09-23T07:51:21.280Z,11.63
2022-09-23T07:53:49.220Z,11.68
2022-09-23T07:56:17.440Z,11.61
2022-09-23T07:58:43.921Z,11.71
2022-09-23T08:01:11.937Z,11.69
2022-09-23T08:03:39.245Z,11.64
2022-09-23T08:06:13.258Z,11.67
2022-09-23T08:08:43.285Z,11.70
2022-09-23T08:11:12.319Z,11.75
2022-09-23T08:13:38.944Z,11.88
2022-09-23T08:16:05.649Z,11.93
2022-09-23T08:18:32.956Z,11.98
2022-09-23T08:20:59.339Z,12.02
2022-09-23T08:23:25.928Z,12.06
2022-09-23T08:26:02.945Z,12.01
2022-09-23T08:28:30.088Z,12.05
2022-09-23T08:30:56.515Z,12.19
2022-09-23T08:33:23.890Z,12.24
2022-09-23T08:35:51.099Z,12.33
2022-09-23T08:38:17.581Z,12.06
2022-09-23T08:40:47.382Z,12.10
2022-09-23T08:43:32.574Z,12.34
2022-09-23T08:46:03.771Z,12.50
2022-09-23T08:48:45.705Z,12.64
2022-09-23T08:51:15.880Z,12.84
2022-09-23T08:53:42.888Z,12.95
2022-09-23T08:56:16.260Z,13.24
2022-09-23T08:59:08.293Z,13.45
2022-09-23T09:01:43.913Z,13.67
2022-09-23T09:04:42.926Z,13.90
2022-09-23T09:10:03.554Z,14.09
2022-09-23T09:13:07.428Z,14.31
2022-09-23T09:15:44.045Z,14.46
2022-09-23T09:18:20.831Z,14.64
2022-09-23T09:21:12.538Z,14.43
2022-09-23T09:23:43.757Z,14.19
2022-09-23T09:26:22.694Z,14.43
2022-09-23T09:29:02.523Z,14.68
2022-09-23T09:31:46.352Z,14.93
2022-09-23T09:34:20.289Z,15.14
2022-09-23T09:36:57.497Z,15.48
2022-09-23T09:39:26.311Z,15.50
2022-09-23T09:41:53.661Z,15.57
2022-09-23T09:44:40.706Z,15.44
2022-09-23T09:47:28.565Z,15.47
2022-09-23T09:50:13.934Z,15.48
2022-09-23T09:52:43.024Z,15.52
2022-09-23T09:55:12.307Z,15.19
2022-09-23T09:58:01.696Z,15.17
2022-09-23T10:00:28.175Z,15.36
2022-09-23T10:02:59.390Z,15.44
2022-09-23T10:05:33.088Z,15.67
2022-09-23T10:08:37.791Z,15.98
2022-09-23T10:11:13.348Z,16.02
2022-09-23T10:13:39.766Z,16.00
2022-09-23T10:16:06.592Z,15.96
2022-09-23T10:18:39.086Z,15.93
2022-09-23T10:21:14.382Z,16.01
2022-09-23T10:24:00.854Z,16.01
2022-09-23T10:26:51.197Z,15.97
2022-09-23T10:29:29.703Z,16.05
2022-09-23T10:32:31.643Z,16.21
2022-09-23T10:35:08.899Z,16.10
2022-09-23T10:37:41.455Z,16.34
2022-09-23T10:40:48.810Z,16.47
2022-09-23T10:43:36.932Z,16.65
2022-09-23T10:46:26.272Z,16.68
2022-09-23T10:49:31.123Z,16.75
2022-09-23T10:52:00.230Z,17.03
2022-09-23T10:54:59.296Z,16.97
2022-09-23T10:57:46.409Z,16.92
2022-09-23T11:00:34.596Z,16.86
2022-09-23T11:03:48.763Z,16.89
2022-09-23T11:06:18.132Z,17.09
2022-09-23T11:09:03.126Z,17.38
2022-09-23T11:11:35.363Z,17.68
2022-09-23T11:14:15.828Z,17.85
2022-09-23T11:17:05.979Z,18.10
2022-09-23T11:19:51.396Z,18.26
2022-09-23T11:22:36.384Z,18.47
2022-09-23T11:25:31.210Z,18.69
2022-09-23T11:28:09.628Z,18.83
2022-09-23T11:31:12.504Z,19.05
2022-09-23T11:33:53.012Z,19.29
2022-09-23T11:36:25.386Z,19.50
2022-09-23T11:38:54.751Z,19.71
2022-09-23T11:41:27.076Z,19.83
2022-09-23T11:44:04.230Z,20.10
2022-09-23T11:46:37.766Z,20.34
2022-09-23T11:49:17.194Z,20.55
2022-09-23T11:51:57.435Z,20.90
2022-09-23T11:54:49.758Z,21.16
2022-09-23T11:57:41.037Z,21.03
2022-09-23T12:00:16.223Z,21.09
2022-09-23T12:03:05.679Z,21.11
2022-09-23T12:05:58.623Z,20.53
2022-09-23T12:08:33.535Z,20.42
2022-09-23T12:11:19.578Z,20.16
2022-09-23T12:14:28.193Z,20.30
2022-09-23T12:17:16.655Z,20.04
2022-09-23T12:20:17.113Z,19.79
2022-09-23T12:22:57.531Z,19.83
2022-09-23T12:25:49.860Z,19.81
2022-09-23T12:28:27.154Z,19.69
2022-09-23T12:30:57.548Z,19.72
2022-09-23T12:33:27.621Z,20.00
2022-09-23T12:36:01.787Z,19.79
2022-09-23T12:38:41.044Z,19.97
2022-09-23T12:41:24.000Z,19.90
2022-09-23T12:43:55.280Z,19.87
2022-09-23T12:46:27.378Z,20.06
2022-09-23T12:48:57.306Z,20.08
2022-09-23T12:51:25.676Z,20.09
2022-09-23T12:53:58.681Z,20.12
2022-09-23T12:56:53.753Z,20.20
2022-09-23T12:59:32.431Z,19.98
2022-09-23T13:02:24.479Z,19.79
2022-09-23T13:05:41.514Z,19.62
2022-09-23T13:08:13.569Z,19.58
2022-09-23T13:10:43.287Z,19.38
2022-09-23T13:13:22.278Z,19.47
2022-09-23T13:15:49.017Z,19.57
2022-09-23T13:18:18.414Z,19.64
2022-09-23T13:20:47.033Z,19.65
2022-09-23T13:23:21.693Z,19.65
2022-09-23T13:25:51.464Z,19.71
2022-09-23T13:28:55.820Z,19.66
2022-09-23T13:31:22.315Z,19.62
2022-09-23T13:33:54.343Z,19.68
2022-09-23T13:36:21.160Z,19.64
2022-09-23T13:38:47.568Z,19.69
2022-09-23T13:41:28.547Z,19.76
2022-09-23T13:43:58.612Z,19.66
2022-09-23T13:46:27.870Z,19.52
2022-09-23T13:48:55.455Z,19.60
2022-09-23T13:51:26.957Z,19.67
2022-09-23T13:53:58.810Z,19.45
2022-09-23T13:56:27.914Z,19.56
2022-09-23T13:58:56.644Z,19.50
2022-09-23T14:01:32.116Z,19.43
2022-09-23T14:03:59.353Z,19.58
2022-09-23T14:06:27.360Z,19.71
2022-09-23T14:08:54.105Z,19.52
2022-09-23T14:11:33.036Z,19.40
2022-09-23T14:14:07.601Z,19.40
2022-09-23T14:16:39.522Z,19.54
2022-09-23T14:19:08.030Z,19.48
2022-09-23T14:21:36.993Z,19.54
2022-09-23T14:24:14.029Z,19.56
2022-09-23T14:26:46.503Z,19.52
2022-09-23T14:29:17.429Z,19.43
2022-09-23T14:31:56.847Z,19.26
2022-09-23T14:34:39.616Z,19.10
2022-09-23T14:37:33.755Z,19.01
2022-09-23T14:40:00.756Z,19.05
2022-09-23T14:42:38.358Z,19.18
2022-09-23T14:45:05.675Z,19.08
2022-09-23T14:47:34.376Z,18.89
2022-09-23T14:50:19.692Z,18.87
2022-09-23T14:52:50.171Z,18.90
2022-09-23T14:55:18.281Z,18.90
2022-09-23T14:57:45.751Z,19.00
2022-09-23T15:00:20.282Z,19.03
2022-09-23T15:03:04.540Z,18.96
2022-09-23T15:05:39.680Z,18.93
2022-09-23T15:08:06.509Z,18.87
2022-09-23T15:10:37.493Z,18.79
2022-09-23T15:13:09.102Z,18.70
2022-09-23T15:15:36.058Z,18.66
2022-09-23T15:18:04.837Z,18.63
2022-09-23T15:20:31.853Z,18.60
2022-09-23T15:22:58.325Z,18.51
2022-09-23T15:25:40.085Z,18.55
2022-09-23T15:28:06.575Z,18.43
2022-09-23T15:30:35.561Z,18.52
2022-09-23T15:33:02.241Z,18.55
2022-09-23T15:35:28.912Z,18.65
2022-09-23T15:37:58.806Z,18.66
2022-09-23T15:40:28.749Z,18.56
2022-09-23T15:42:58.559Z,18.44
2022-09-23T15:45:33.326Z,18.45
2022-09-23T15:48:06.843Z,18.53
2022-09-23T15:50:35.053Z,18.52
2022-09-23T15:53:01.545Z,18.50
2022-09-23T15:55:27.916Z,18.46
2022-09-23T15:57:54.361Z,18.32
2022-09-23T16:00:21.291Z,18.31
2022-09-23T16:02:49.229Z,18.27
2022-09-23T16:05:37.861Z,18.37
2022-09-23T16:08:08.920Z,18.42
2022-09-23T16:10:36.798Z,18.40
2022-09-23T16:13:06.234Z,18.43
2022-09-23T16:15:32.970Z,18.48
2022-09-23T16:18:00.198Z,18.52
2022-09-23T16:20:29.759Z,18.48
2022-09-23T16:23:01.949Z,18.45
2022-09-23T16:25:31.424Z,18.38
2022-09-23T16:27:58.446Z,18.43
2022-09-23T16:30:30.417Z,18.47
2022-09-23T16:32:56.935Z,18.47
2022-09-23T16:35:26.896Z,18.44
2022-09-23T16:37:53.634Z,18.45
2022-09-23T16:40:22.516Z,18.43
2022-09-23T16:42:51.092Z,18.38
2022-09-23T16:45:18.999Z,18.39
2022-09-23T16:47:47.614Z,18.33
2022-09-23T16:50:16.421Z,18.28
2022-09-23T16:52:43.705Z,18.27
2022-09-23T16:55:12.322Z,18.26
2022-09-23T16:57:39.628Z,18.12
2022-09-23T17:00:32.345Z,18.08
2022-09-23T17:03:17.427Z,18.02
2022-09-23T17:05:46.571Z,18.03
2022-09-23T17:08:15.047Z,18.00
2022-09-23T17:10:43.039Z,17.92
2022-09-23T17:13:11.010Z,17.92
2022-09-23T17:15:41.367Z,17.88
2022-09-23T17:18:09.110Z,17.80
2022-09-23T17:20:35.675Z,17.74
2022-09-23T17:23:05.354Z,17.66
2022-09-23T17:25:33.888Z,17.63
2022-09-23T17:28:00.818Z,17.58
2022-09-23T17:30:27.593Z,17.54
2022-09-23T17:32:54.171Z,17.49
2022-09-23T17:35:20.544Z,17.45
2022-09-23T17:37:47.595Z,17.39
2022-09-23T17:40:14.236Z,17.28
2022-09-23T17:42:41.324Z,17.24
2022-09-23T17:45:10.294Z,17.22
2022-09-23T17:47:41.314Z,17.19
2022-09-23T17:50:08.242Z,17.16
2022-09-23T17:52:34.615Z,17.17
2022-09-23T17:55:01.051Z,17.14
2022-09-23T17:57:27.424Z,17.12
2022-09-23T17:59:53.953Z,17.08
2022-09-23T18:02:22.462Z,17.00
2022-09-23T18:04:48.957Z,16.97
2022-09-23T18:07:15.321Z,16.95
2022-09-23T18:09:41.725Z,16.95
2022-09-23T18:12:08.111Z,16.91
2022-09-23T18:14:34.501Z,16.91
2022-09-23T18:17:00.859Z,16.86
2022-09-23T18:19:27.224Z,16.83
2022-09-23T18:21:56.279Z,16.82
2022-09-23T18:24:38.718Z,16.79
2022-09-23T18:27:06.400Z,16.75
2022-09-23T18:29:34.343Z,16.70
2022-09-23T18:32:01.299Z,16.68
2022-09-23T18:34:28.550Z,16.69
2022-09-23T18:36:56.092Z,16.71
2022-09-23T18:39:22.548Z,16.71
2022-09-23T18:41:49.517Z,16.67
2022-09-23T18:44:16.788Z,16.66
2022-09-23T18:46:44.728Z,16.62
2022-09-23T18:49:29.524Z,16.61
2022-09-23T18:51:57.767Z,16.61
2022-09-23T18:54:25.964Z,16.61
2022-09-23T18:56:52.713Z,16.61
2022-09-23T18:59:23.647Z,16.57
2022-09-23T19:01:50.726Z,16.53
2022-09-23T19:04:19.892Z,16.52
2022-09-23T19:06:47.185Z,16.43
2022-09-23T19:09:15.069Z,16.32
2022-09-23T19:11:41.570Z,16.27
2022-09-23T19:14:11.397Z,16.24
2022-09-23T19:16:39.460Z,16.14
2022-09-23T19:19:06.543Z,16.06
2022-09-23T19:21:33.517Z,16.05
2022-09-23T19:24:03.367Z,15.99
2022-09-23T19:26:34.439Z,15.95
2022-09-23T19:29:02.676Z,15.91
2022-09-23T19:31:33.319Z,15.88
2022-09-23T19:34:01.192Z,15.88
2022-09-23T19:36:33.207Z,15.85
2022-09-23T19:39:03.180Z,15.80
2022-09-23T19:41:32.171Z,15.77
2022-09-23T19:44:03.266Z,15.77
2022-09-23T19:46:33.617Z,15.73
2022-09-23T19:49:00.591Z,15.73
2022-09-23T19:51:27.628Z,15.73
2022-09-23T19:53:53.987Z,15.71
2022-09-23T19:56:20.452Z,15.69
2022-09-23T19:58:49.495Z,15.61
2022-09-23T20:01:16.566Z,15.55
2022-09-23T20:03:47.094Z,15.52
2022-09-23T20:06:14.814Z,15.42
2022-09-23T20:08:41.351Z,15.39
2022-09-23T20:11:11.518Z,15.35
2022-09-23T20:13:42.534Z,15.32
2022-09-23T20:16:11.487Z,15.29
2022-09-23T20:18:38.488Z,15.29
2022-09-23T20:21:06.224Z,15.28
2022-09-23T20:23:32.856Z,15.25
2022-09-23T20:26:19.443Z,15.20
2022-09-23T20:28:46.196Z,15.17
2022-09-23T20:31:13.553Z,15.13
2022-09-23T20:33:41.535Z,15.12
2022-09-23T20:36:13.160Z,15.10
2022-09-23T20:38:40.448Z,15.06
2022-09-23T20:41:08.268Z,15.03
2022-09-23T20:43:35.381Z,14.99
2022-09-23T20:46:05.385Z,14.95
2022-09-23T20:48:31.809Z,14.90
2022-09-23T20:51:02.619Z,14.89
2022-09-23T20:53:29.431Z,14.88
2022-09-23T20:55:58.117Z,14.91
2022-09-23T20:58:29.419Z,14.91
2022-09-23T21:01:27.212Z,14.91
2022-09-23T21:03:55.761Z,14.89
2022-09-23T21:06:26.078Z,14.85
2022-09-23T21:08:53.641Z,14.81
2022-09-23T21:11:20.431Z,14.78
2022-09-23T21:13:48.092Z,14.71
2022-09-23T21:16:16.101Z,14.71
2022-09-23T21:18:43.660Z,14.64
2022-09-23T21:21:12.088Z,14.59
2022-09-23T21:23:39.281Z,14.53
2022-09-23T21:26:12.014Z,14.49
2022-09-23T21:28:43.354Z,14.47
2022-09-23T21:31:25.610Z,14.48
2022-09-23T21:33:59.019Z,14.44
2022-09-23T21:36:27.408Z,14.44
2022-09-23T21:38:53.892Z,14.43
2022-09-23T21:41:26.048Z,14.42
2022-09-23T21:43:52.537Z,14.37
2022-09-23T21:46:20.862Z,14.37
2022-09-23T21:48:50.372Z,14.33
2022-09-23T21:51:19.194Z,14.32
2022-09-23T21:53:46.006Z,14.32
2022-09-23T21:56:20.711Z,14.32
2022-09-23T21:58:47.945Z,14.31
2022-09-23T22:01:22.368Z,14.28
2022-09-23T22:03:52.348Z,14.23
2022-09-23T22:06:21.735Z,14.19
2022-09-23T22:08:54.280Z,14.18
2022-09-23T22:11:42.049Z,14.17
2022-09-23T22:14:12.409Z,14.12
2022-09-23T22:16:39.789Z,14.11
2022-09-23T22:19:09.817Z,14.05
2022-09-23T22:21:38.650Z,14.05
2022-09-23T22:24:07.361Z,13.99
2022-09-23T22:26:44.504Z,13.99
2022-09-23T22:29:34.695Z,13.97
2022-09-23T22:32:20.985Z,13.94
2022-09-23T22:34:50.567Z,13.89
2022-09-23T22:37:25.632Z,13.89
2022-09-23T22:39:52.860Z,13.92
2022-09-23T22:42:22.276Z,13.91
2022-09-23T22:44:49.052Z,13.89
2022-09-23T22:47:17.531Z,13.88
2022-09-23T22:49:44.004Z,13.91
2022-09-23T22:52:12.347Z,13.88
2022-09-23T22:54:38.701Z,13.87
2022-09-23T22:57:06.838Z,13.83
2022-09-23T22:59:33.758Z,13.82
2022-09-23T23:02:02.322Z,13.81
2022-09-23T23:04:29.963Z,13.78
2022-09-23T23:06:58.174Z,13.76
2022-09-23T23:09:24.564Z,13.72
2022-09-23T23:11:50.949Z,13.69
2022-09-23T23:14:18.392Z,13.68
2022-09-23T23:16:46.112Z,13.66
2022-09-23T23:19:14.487Z,13.63
2022-09-23T23:21:44.818Z,13.65
2022-09-23T23:24:16.888Z,13.63
2022-09-23T23:26:43.633Z,13.65
2022-09-23T23:29:14.041Z,13.60
2022-09-23T23:31:40.913Z,13.58
2022-09-23T23:34:17.534Z,13.55
2022-09-23T23:36:44.447Z,13.55
2022-09-23T23:39:11.510Z,13.59
2022-09-23T23:41:39.456Z,13.61
2022-09-23T23:44:07.047Z,13.61
2022-09-23T23:46:34.067Z,13.62
2022-09-23T23:49:00.560Z,13.62
2022-09-23T23:51:27.657Z,13.63
2022-09-23T23:53:54.895Z,13.64
2022-09-23T23:56:23.404Z,13.67
2022-09-23T23:58:58.213Z,13.70
